sensor_id;sensor_type;location;lat;lon;timestamp;pressure;altitude;pressure_sealevel;temperature;humidity
10638;BME280;47007;49.252;8.904;2022-09-29T00:02:06;98245.78;;;8.26;100.00
10638;BME280;47007;49.252;8.904;2022-09-29T00:04:33;98250.25;;;8.25;100.00
10638;BME280;47007;49.252;8.904;2022-09-29T00:06:59;98240.72;;;8.18;100.00
10638;BME280;47007;49.252;8.904;2022-09-29T00:09:26;98270.38;;;8.13;100.00
10638;BME280;47007;49.252;8.904;2022-09-29T00:11:54;98236.72;;;7.89;100.00
10638;BME280;47007;49.252;8.904;2022-09-29T00:14:21;98255.75;;;8.04;100.00
10638;BME280;47007;49.252;8.904;2022-09-29T00:16:48;98224.34;;;7.83;100.00
10638;BME280;47007;49.252;8.904;2022-09-29T00:19:16;98234.47;;;7.92;100.00
10638;BME280;47007;49.252;8.904;2022-09-29T00:21:42;98261.84;;;8.11;100.00
10638;BME280;47007;49.252;8.904;2022-09-29T00:24:09;98261.66;;;8.06;100.00
10638;BME280;47007;49.252;8.904;2022-09-29T00:26:36;98238.97;;;7.79;100.00
10638;BME280;47007;49.252;8.904;2022-09-29T00:29:03;98235.72;;;7.77;100.00
10638;BME280;47007;49.252;8.904;2022-09-29T00:31:32;98249.31;;;7.74;100.00
10638;BME280;47007;49.252;8.904;2022-09-29T00:33:58;98217.25;;;7.50;100.00
10638;BME280;47007;49.252;8.904;2022-09-29T00:36:25;98251.72;;;7.69;100.00
10638;BME280;47007;49.252;8.904;2022-09-29T00:38:57;98180.75;;;7.21;100.00
10638;BME280;47007;49.252;8.904;2022-09-29T00:41:27;98252.72;;;7.54;100.00
10638;BME280;47007;49.252;8.904;2022-09-29T00:49:22;98229.03;;;7.41;100.00
10638;BME280;47007;49.252;8.904;2022-09-29T00:54:19;98245.84;;;7.34;100.00
10638;BME280;47007;49.252;8.904;2022-09-29T00:56:47;98217.25;;;7.24;100.00
10638;BME280;47007;49.252;8.904;2022-09-29T00:59:20;98237.72;;;7.29;100.00
10638;BME280;47007;49.252;8.904;2022-09-29T01:01:51;98223.31;;;7.31;100.00
10638;BME280;47007;49.252;8.904;2022-09-29T01:04:18;98234.28;;;7.28;100.00
10638;BME280;47007;49.252;8.904;2022-09-29T01:06:49;98236.31;;;7.26;100.00
10638;BME280;47007;49.252;8.904;2022-09-29T01:09:19;98214.38;;;7.12;100.00
10638;BME280;47007;49.252;8.904;2022-09-29T01:11:47;98229.81;;;7.29;100.00
10638;BME280;47007;49.252;8.904;2022-09-29T01:14:14;98239.56;;;7.35;100.00
10638;BME280;47007;49.252;8.904;2022-09-29T01:16:42;98245.63;;;7.35;100.00
10638;BME280;47007;49.252;8.904;2022-09-29T01:19:14;98228.63;;;7.38;100.00
10638;BME280;47007;49.252;8.904;2022-09-29T01:24:53;98232.06;;;7.51;100.00
10638;BME280;47007;49.252;8.904;2022-09-29T01:30:20;98241.41;;;7.54;100.00
10638;BME280;47007;49.252;8.904;2022-09-29T01:41:35;98238.75;;;7.74;100.00
10638;BME280;47007;49.252;8.904;2022-09-29T01:44:16;98241.59;;;7.72;100.00
10638;BME280;47007;49.252;8.904;2022-09-29T01:46:55;98220.69;;;7.71;100.00
10638;BME280;47007;49.252;8.904;2022-09-29T01:49:25;98225.78;;;7.59;100.00
10638;BME280;47007;49.252;8.904;2022-09-29T01:52:07;98237.94;;;7.60;100.00
10638;BME280;47007;49.252;8.904;2022-09-29T01:57:09;98230.22;;;7.45;100.00
10638;BME280;47007;49.252;8.904;2022-09-29T01:59:46;98245.44;;;7.56;100.00
10638;BME280;47007;49.252;8.904;2022-09-29T02:02:20;98227.78;;;7.57;100.00
10638;BME280;47007;49.252;8.904;2022-09-29T02:04:53;98241.00;;;7.64;100.00
10638;BME280;47007;49.252;8.904;2022-09-29T02:07:28;98244.22;;;7.59;100.00
10638;BME280;47007;49.252;8.904;2022-09-29T02:10:02;98216.84;;;7.27;100.00
10638;BME280;47007;49.252;8.904;2022-09-29T02:12:32;98256.16;;;7.42;100.00
10638;BME280;47007;49.252;8.904;2022-09-29T02:15:03;98251.72;;;7.36;100.00
10638;BME280;47007;49.252;8.904;2022-09-29T02:17:36;98256.38;;;7.27;100.00
10638;BME280;47007;49.252;8.904;2022-09-29T02:20:05;98249.06;;;7.16;100.00
10638;BME280;47007;49.252;8.904;2022-09-29T02:22:33;98247.63;;;7.20;100.00
10638;BME280;47007;49.252;8.904;2022-09-29T02:25:01;98246.41;;;7.09;100.00
10638;BME280;47007;49.252;8.904;2022-09-29T02:27:29;98262.44;;;7.14;100.00
10638;BME280;47007;49.252;8.904;2022-09-29T02:29:56;98264.25;;;7.14;100.00
10638;BME280;47007;49.252;8.904;2022-09-29T02:32:25;98263.84;;;7.17;100.00
10638;BME280;47007;49.252;8.904;2022-09-29T02:34:52;98267.09;;;7.19;100.00
10638;BME280;47007;49.252;8.904;2022-09-29T02:51:11;98258.81;;;7.35;100.00
10638;BME280;47007;49.252;8.904;2022-09-29T02:59:36;98265.13;;;7.41;100.00
10638;BME280;47007;49.252;8.904;2022-09-29T03:02:05;98271.59;;;7.45;100.00
10638;BME280;47007;49.252;8.904;2022-09-29T03:04:32;98259.00;;;7.34;100.00
10638;BME280;47007;49.252;8.904;2022-09-29T03:06:58;98270.38;;;7.41;100.00
10638;BME280;47007;49.252;8.904;2022-09-29T03:09:25;98260.63;;;7.35;100.00
10638;BME280;47007;49.252;8.904;2022-09-29T03:11:52;98260.25;;;7.38;100.00
10638;BME280;47007;49.252;8.904;2022-09-29T03:14:19;98263.28;;;7.48;100.00
10638;BME280;47007;49.252;8.904;2022-09-29T03:16:45;98254.34;;;7.55;100.00
10638;BME280;47007;49.252;8.904;2022-09-29T03:19:12;98223.94;;;7.46;100.00
10638;BME280;47007;49.252;8.904;2022-09-29T03:21:39;98269.00;;;7.65;100.00
10638;BME280;47007;49.252;8.904;2022-09-29T03:24:06;98242.19;;;7.48;100.00
10638;BME280;47007;49.252;8.904;2022-09-29T03:26:32;98228.00;;;7.29;100.00
10638;BME280;47007;49.252;8.904;2022-09-29T03:28:59;98259.63;;;7.55;100.00
10638;BME280;47007;49.252;8.904;2022-09-29T03:31:26;98240.16;;;7.43;100.00
10638;BME280;47007;49.252;8.904;2022-09-29T03:33:53;98263.28;;;7.48;100.00
10638;BME280;47007;49.252;8.904;2022-09-29T03:36:19;98244.44;;;7.38;100.00
10638;BME280;47007;49.252;8.904;2022-09-29T03:38:46;98254.34;;;7.55;100.00
10638;BME280;47007;49.252;8.904;2022-09-29T03:41:13;98249.28;;;7.47;100.00
10638;BME280;47007;49.252;8.904;2022-09-29T03:43:40;98250.50;;;7.45;100.00
10638;BME280;47007;49.252;8.904;2022-09-29T03:46:07;98255.78;;;7.45;100.00
10638;BME280;47007;49.252;8.904;2022-09-29T03:48:33;98241.97;;;7.30;100.00
10638;BME280;47007;49.252;8.904;2022-09-29T03:51:00;98221.69;;;7.10;100.00
10638;BME280;47007;49.252;8.904;2022-09-29T03:53:27;98215.97;;;7.07;100.00
10638;BME280;47007;49.252;8.904;2022-09-29T03:55:54;98158.38;;;6.64;100.00
10638;BME280;47007;49.252;8.904;2022-09-29T03:58:20;98204.03;;;6.98;100.00
10638;BME280;47007;49.252;8.904;2022-09-29T04:00:48;98221.69;;;7.17;100.00
10638;BME280;47007;49.252;8.904;2022-09-29T04:03:15;98246.84;;;7.33;100.00
10638;BME280;47007;49.252;8.904;2022-09-29T04:05:44;98240.75;;;7.32;100.00
10638;BME280;47007;49.252;8.904;2022-09-29T04:08:11;98223.53;;;7.23;100.00
10638;BME280;47007;49.252;8.904;2022-09-29T04:10:39;98233.84;;;7.18;100.00
10638;BME280;47007;49.252;8.904;2022-09-29T04:13:06;98231.00;;;7.19;100.00
10638;BME280;47007;49.252;8.904;2022-09-29T04:15:33;98239.91;;;7.18;100.00
10638;BME280;47007;49.252;8.904;2022-09-29T04:18:00;98232.41;;;7.09;100.00
10638;BME280;47007;49.252;8.904;2022-09-29T04:20:27;98236.44;;;6.98;100.00
10638;BME280;47007;49.252;8.904;2022-09-29T04:22:54;98258.31;;;6.99;100.00
10638;BME280;47007;49.252;8.904;2022-09-29T04:25:20;98227.84;;;6.70;100.00
10638;BME280;47007;49.252;8.904;2022-09-29T04:27:47;98249.56;;;6.78;100.00
10638;BME280;47007;49.252;8.904;2022-09-29T04:30:14;98251.19;;;6.93;100.00
10638;BME280;47007;49.252;8.904;2022-09-29T04:32:41;98265.03;;;7.08;100.00
10638;BME280;47007;49.252;8.904;2022-09-29T04:35:08;98265.91;;;7.28;100.00
10638;BME280;47007;49.252;8.904;2022-09-29T04:37:35;98258.00;;;7.48;100.00
10638;BME280;47007;49.252;8.904;2022-09-29T04:40:03;98259.84;;;7.47;100.00
10638;BME280;47007;49.252;8.904;2022-09-29T04:42:30;98249.28;;;7.28;100.00
10638;BME280;47007;49.252;8.904;2022-09-29T04:44:57;98257.78;;;7.30;100.00
10638;BME280;47007;49.252;8.904;2022-09-29T04:47:24;98254.34;;;7.29;100.00
10638;BME280;47007;49.252;8.904;2022-09-29T04:49:51;98263.06;;;7.36;100.00
10638;BME280;47007;49.252;8.904;2022-09-29T04:52:17;98187.56;;;6.82;100.00
10638;BME280;47007;49.252;8.904;2022-09-29T04:54:47;98241.53;;;7.13;100.00
10638;BME280;47007;49.252;8.904;2022-09-29T04:57:13;98237.91;;;7.14;100.00
10638;BME280;47007;49.252;8.904;2022-09-29T04:59:40;98253.13;;;7.32;100.00
10638;BME280;47007;49.252;8.904;2022-09-29T05:02:07;98247.47;;;7.41;100.00
10638;BME280;47007;49.252;8.904;2022-09-29T05:04:33;98248.28;;;7.35;100.00
10638;BME280;47007;49.252;8.904;2022-09-29T05:07:00;98249.88;;;7.23;100.00
10638;BME280;47007;49.252;8.904;2022-09-29T05:09:26;98181.25;;;6.64;100.00
10638;BME280;47007;49.252;8.904;2022-09-29T05:11:59;98255.03;;;6.83;100.00
10638;BME280;47007;49.252;8.904;2022-09-29T05:14:26;98233.91;;;6.70;100.00
10638;BME280;47007;49.252;8.904;2022-09-29T05:16:56;98252.19;;;6.78;100.00
10638;BME280;47007;49.252;8.904;2022-09-29T05:19:23;98273.06;;;6.87;100.00
10638;BME280;47007;49.252;8.904;2022-09-29T05:21:50;98261.53;;;6.88;100.00
10638;BME280;47007;49.252;8.904;2022-09-29T05:24:16;98264.59;;;6.91;100.00
10638;BME280;47007;49.252;8.904;2022-09-29T05:26:43;98232.09;;;6.71;100.00
10638;BME280;47007;49.252;8.904;2022-09-29T05:29:10;98258.66;;;6.76;100.00
10638;BME280;47007;49.252;8.904;2022-09-29T05:31:37;98277.53;;;6.86;100.00
10638;BME280;47007;49.252;8.904;2022-09-29T05:34:03;98273.28;;;6.85;100.00
10638;BME280;47007;49.252;8.904;2022-09-29T05:36:30;98277.09;;;6.82;100.00
10638;BME280;47007;49.252;8.904;2022-09-29T05:38:57;98254.31;;;6.55;100.00
10638;BME280;47007;49.252;8.904;2022-09-29T05:41:24;98298.53;;;6.66;100.00
10638;BME280;47007;49.252;8.904;2022-09-29T05:43:52;98275.66;;;6.73;100.00
10638;BME280;47007;49.252;8.904;2022-09-29T05:46:19;98265.34;;;6.78;100.00
10638;BME280;47007;49.252;8.904;2022-09-29T05:48:48;98296.84;;;7.06;100.00
10638;BME280;47007;49.252;8.904;2022-09-29T05:51:17;98294.63;;;7.10;100.00
10638;BME280;47007;49.252;8.904;2022-09-29T05:53:48;98286.72;;;7.03;100.00
10638;BME280;47007;49.252;8.904;2022-09-29T05:56:17;98246.50;;;6.75;100.00
10638;BME280;47007;49.252;8.904;2022-09-29T05:58:44;98295.84;;;7.07;100.00
10638;BME280;47007;49.252;8.904;2022-09-29T06:01:17;98305.59;;;7.13;100.00
10638;BME280;47007;49.252;8.904;2022-09-29T06:03:44;98303.38;;;7.17;100.00
10638;BME280;47007;49.252;8.904;2022-09-29T06:06:15;98311.91;;;7.26;100.00
10638;BME280;47007;49.252;8.904;2022-09-29T06:08:43;98305.81;;;7.32;100.00
10638;BME280;47007;49.252;8.904;2022-09-29T06:11:19;98302.00;;;7.34;100.00
10638;BME280;47007;49.252;8.904;2022-09-29T06:13:48;98308.69;;;7.43;100.00
10638;BME280;47007;49.252;8.904;2022-09-29T06:16:17;98290.63;;;7.34;100.00
10638;BME280;47007;49.252;8.904;2022-09-29T06:18:46;98310.53;;;7.56;100.00
10638;BME280;47007;49.252;8.904;2022-09-29T06:21:15;98301.41;;;7.58;100.00
10638;BME280;47007;49.252;8.904;2022-09-29T06:23:43;98317.47;;;7.77;100.00
10638;BME280;47007;49.252;8.904;2022-09-29T06:26:12;98289.88;;;7.73;100.00
10638;BME280;47007;49.252;8.904;2022-09-29T06:28:39;98295.34;;;7.71;100.00
10638;BME280;47007;49.252;8.904;2022-09-29T06:31:11;98323.13;;;7.80;100.00
10638;BME280;47007;49.252;8.904;2022-09-29T06:33:38;98325.41;;;7.77;100.00
10638;BME280;47007;49.252;8.904;2022-09-29T06:39:05;98230.41;;;7.31;100.00
10638;BME280;47007;49.252;8.904;2022-09-29T06:41:32;98292.91;;;7.70;100.00
10638;BME280;47007;49.252;8.904;2022-09-29T06:44:01;98317.28;;;7.98;100.00
10638;BME280;47007;49.252;8.904;2022-09-29T06:46:29;98320.09;;;8.16;100.00
10638;BME280;47007;49.252;8.904;2022-09-29T06:48:56;98322.72;;;8.29;100.00
10638;BME280;47007;49.252;8.904;2022-09-29T06:51:24;98306.50;;;8.33;100.00
10638;BME280;47007;49.252;8.904;2022-09-29T06:54:06;98280.09;;;8.26;100.00
10638;BME280;47007;49.252;8.904;2022-09-29T06:56:38;98311.56;;;8.47;100.00
10638;BME280;47007;49.252;8.904;2022-09-29T06:59:05;98306.88;;;8.62;100.00
10638;BME280;47007;49.252;8.904;2022-09-29T07:01:32;98323.00;;;8.92;100.00
10638;BME280;47007;49.252;8.904;2022-09-29T07:04:00;98272.25;;;8.84;100.00
10638;BME280;47007;49.252;8.904;2022-09-29T07:06:28;98292.31;;;9.36;100.00
10638;BME280;47007;49.252;8.904;2022-09-29T07:08:56;98296.19;;;9.65;100.00
10638;BME280;47007;49.252;8.904;2022-09-29T07:11:23;98311.22;;;9.96;100.00
10638;BME280;47007;49.252;8.904;2022-09-29T07:13:50;98305.34;;;10.19;100.00
10638;BME280;47007;49.252;8.904;2022-09-29T07:16:21;98300.09;;;10.12;100.00
10638;BME280;47007;49.252;8.904;2022-09-29T07:18:51;98309.66;;;10.13;100.00
10638;BME280;47007;49.252;8.904;2022-09-29T07:21:19;98316.81;;;10.13;100.00
10638;BME280;47007;49.252;8.904;2022-09-29T07:23:47;98315.44;;;10.03;100.00
10638;BME280;47007;49.252;8.904;2022-09-29T07:26:15;98322.94;;;9.82;100.00
10638;BME280;47007;49.252;8.904;2022-09-29T07:28:43;98328.13;;;9.95;100.00
10638;BME280;47007;49.252;8.904;2022-09-29T07:31:14;98317.16;;;10.41;100.00
10638;BME280;47007;49.252;8.904;2022-09-29T07:33:42;98275.53;;;10.85;100.00
10638;BME280;47007;49.252;8.904;2022-09-29T07:36:10;98304.72;;;11.14;100.00
10638;BME280;47007;49.252;8.904;2022-09-29T07:38:37;98292.94;;;11.40;100.00
10638;BME280;47007;49.252;8.904;2022-09-29T07:41:06;98282.47;;;11.15;100.00
10638;BME280;47007;49.252;8.904;2022-09-29T07:43:33;98326.91;;;11.02;100.00
10638;BME280;47007;49.252;8.904;2022-09-29T07:46:00;98309.69;;;10.74;100.00
10638;BME280;47007;49.252;8.904;2022-09-29T07:48:29;98309.31;;;10.89;100.00
10638;BME280;47007;49.252;8.904;2022-09-29T07:51:16;98322.59;;;11.37;100.00
10638;BME280;47007;49.252;8.904;2022-09-29T07:53:43;98330.34;;;11.50;100.00
10638;BME280;47007;49.252;8.904;2022-09-29T07:56:15;98322.91;;;11.59;100.00
10638;BME280;47007;49.252;8.904;2022-09-29T07:58:45;98324.84;;;11.64;100.00
10638;BME280;47007;49.252;8.904;2022-09-29T08:01:13;98309.72;;;11.52;100.00
10638;BME280;47007;49.252;8.904;2022-09-29T08:03:44;98326.59;;;11.58;100.00
10638;BME280;47007;49.252;8.904;2022-09-29T08:06:14;98331.44;;;11.61;100.00
10638;BME280;47007;49.252;8.904;2022-09-29T08:08:41;98265.13;;;11.31;100.00
10638;BME280;47007;49.252;8.904;2022-09-29T08:11:25;98327.34;;;11.77;100.00
10638;BME280;47007;49.252;8.904;2022-09-29T08:13:59;98331.88;;;11.88;100.00
10638;BME280;47007;49.252;8.904;2022-09-29T08:16:26;98345.88;;;11.95;100.00
10638;BME280;47007;49.252;8.904;2022-09-29T08:18:54;98316.53;;;12.02;100.00
10638;BME280;47007;49.252;8.904;2022-09-29T08:21:21;98327.19;;;12.25;100.00
10638;BME280;47007;49.252;8.904;2022-09-29T08:23:48;98340.16;;;12.56;100.00
10638;BME280;47007;49.252;8.904;2022-09-29T08:26:17;98334.34;;;12.83;100.00
10638;BME280;47007;49.252;8.904;2022-09-29T08:28:47;98323.50;;;13.13;100.00
10638;BME280;47007;49.252;8.904;2022-09-29T08:31:27;98327.97;;;13.36;100.00
10638;BME280;47007;49.252;8.904;2022-09-29T08:33:56;98342.81;;;13.60;100.00
10638;BME280;47007;49.252;8.904;2022-09-29T08:36:24;98340.25;;;13.65;100.00
10638;BME280;47007;49.252;8.904;2022-09-29T08:38:53;98338.06;;;13.62;100.00
10638;BME280;47007;49.252;8.904;2022-09-29T08:41:38;98344.41;;;13.61;100.00
10638;BME280;47007;49.252;8.904;2022-09-29T08:47:12;98342.31;;;13.91;100.00
10638;BME280;47007;49.252;8.904;2022-09-29T08:49:48;98361.72;;;14.20;100.00
10638;BME280;47007;49.252;8.904;2022-09-29T08:52:28;98356.97;;;14.56;100.00
10638;BME280;47007;49.252;8.904;2022-09-29T08:57:50;98343.91;;;14.98;100.00
10638;BME280;47007;49.252;8.904;2022-09-29T09:00:19;98333.59;;;14.85;100.00
10638;BME280;47007;49.252;8.904;2022-09-29T09:03:11;98257.31;;;14.62;100.00
10638;BME280;47007;49.252;8.904;2022-09-29T09:08:49;98381.69;;;17.10;100.00
10638;BME280;47007;49.252;8.904;2022-09-29T09:23:17;98375.31;;;17.16;100.00
10638;BME280;47007;49.252;8.904;2022-09-29T09:25:53;98381.75;;;17.20;100.00
10638;BME280;47007;49.252;8.904;2022-09-29T09:28:47;98390.31;;;17.17;100.00
10638;BME280;47007;49.252;8.904;2022-09-29T09:31:34;98388.44;;;17.95;100.00
10638;BME280;47007;49.252;8.904;2022-09-29T09:34:19;98335.91;;;18.50;100.00
10638;BME280;47007;49.252;8.904;2022-09-29T09:37:17;98423.63;;;18.85;100.00
10638;BME280;47007;49.252;8.904;2022-09-29T09:39:47;98398.41;;;18.05;100.00
10638;BME280;47007;49.252;8.904;2022-09-29T09:42:20;98396.50;;;16.75;100.00
10638;BME280;47007;49.252;8.904;2022-09-29T09:44:52;98372.59;;;15.73;100.00
10638;BME280;47007;49.252;8.904;2022-09-29T09:47:26;98364.28;;;15.26;100.00
10638;BME280;47007;49.252;8.904;2022-09-29T09:50:05;98365.97;;;15.32;100.00
10638;BME280;47007;49.252;8.904;2022-09-29T09:53:05;98365.53;;;15.18;100.00
10638;BME280;47007;49.252;8.904;2022-09-29T09:55:30;98373.28;;;14.98;100.00
10638;BME280;47007;49.252;8.904;2022-09-29T10:01:02;98359.81;;;14.88;100.00
10638;BME280;47007;49.252;8.904;2022-09-29T10:03:30;98364.28;;;15.04;100.00
10638;BME280;47007;49.252;8.904;2022-09-29T10:05:57;98375.81;;;15.09;100.00
10638;BME280;47007;49.252;8.904;2022-09-29T10:08:28;98374.31;;;14.97;100.00
10638;BME280;47007;49.252;8.904;2022-09-29T10:10:57;98372.44;;;14.76;100.00
10638;BME280;47007;49.252;8.904;2022-09-29T10:13:28;98390.34;;;14.58;100.00
10638;BME280;47007;49.252;8.904;2022-09-29T10:18:46;98384.59;;;15.05;100.00
10638;BME280;47007;49.252;8.904;2022-09-29T10:23:53;98368.66;;;15.32;100.00
10638;BME280;47007;49.252;8.904;2022-09-29T10:26:26;98389.31;;;15.41;100.00
10638;BME280;47007;49.252;8.904;2022-09-29T10:28:58;98349.66;;;15.06;100.00
10638;BME280;47007;49.252;8.904;2022-09-29T10:31:32;98416.75;;;15.15;100.00
10638;BME280;47007;49.252;8.904;2022-09-29T10:34:14;98394.34;;;15.16;100.00
10638;BME280;47007;49.252;8.904;2022-09-29T10:42:19;98405.50;;;16.64;100.00
10638;BME280;47007;49.252;8.904;2022-09-29T10:44:52;98415.03;;;16.87;100.00
10638;BME280;47007;49.252;8.904;2022-09-29T10:47:21;98398.91;;;16.77;100.00
10638;BME280;47007;49.252;8.904;2022-09-29T10:50:07;98417.25;;;17.00;100.00
10638;BME280;47007;49.252;8.904;2022-09-29T10:52:35;98415.88;;;16.93;100.00
10638;BME280;47007;49.252;8.904;2022-09-29T10:55:03;98414.91;;;16.72;100.00
10638;BME280;47007;49.252;8.904;2022-09-29T10:57:32;98408.50;;;16.68;100.00
10638;BME280;47007;49.252;8.904;2022-09-29T10:59:59;98410.44;;;16.77;100.00
10638;BME280;47007;49.252;8.904;2022-09-29T11:02:33;98360.41;;;16.46;100.00
10638;BME280;47007;49.252;8.904;2022-09-29T11:05:04;98430.50;;;16.21;100.00
10638;BME280;47007;49.252;8.904;2022-09-29T11:07:44;98385.53;;;15.59;100.00
10638;BME280;47007;49.252;8.904;2022-09-29T11:12:54;98396.84;;;15.44;100.00
10638;BME280;47007;49.252;8.904;2022-09-29T11:15:37;98412.47;;;15.36;100.00
10638;BME280;47007;49.252;8.904;2022-09-29T11:18:19;98414.25;;;15.69;100.00
10638;BME280;47007;49.252;8.904;2022-09-29T11:20:57;98404.66;;;16.00;100.00
10638;BME280;47007;49.252;8.904;2022-09-29T11:24:18;98418.72;;;16.49;100.00
10638;BME280;47007;49.252;8.904;2022-09-29T11:26:23;98418.59;;;16.34;100.00
10638;BME280;47007;49.252;8.904;2022-09-29T11:28:59;98414.78;;;16.25;100.00
10638;BME280;47007;49.252;8.904;2022-09-29T11:45:12;98425.03;;;16.06;100.00
10638;BME280;47007;49.252;8.904;2022-09-29T11:48:10;98419.97;;;15.82;100.00
10638;BME280;47007;49.252;8.904;2022-09-29T11:51:00;98421.13;;;15.65;100.00
10638;BME280;47007;49.252;8.904;2022-09-29T12:01:55;98412.72;;;15.78;100.00
10638;BME280;47007;49.252;8.904;2022-09-29T12:15:58;98365.63;;;15.72;100.00
10638;BME280;47007;49.252;8.904;2022-09-29T12:18:34;98412.50;;;15.85;100.00
10638;BME280;47007;49.252;8.904;2022-09-29T12:21:02;98397.03;;;15.60;100.00
10638;BME280;47007;49.252;8.904;2022-09-29T12:23:33;98356.78;;;15.44;100.00
10638;BME280;47007;49.252;8.904;2022-09-29T12:26:22;98408.38;;;16.26;100.00
10638;BME280;47007;49.252;8.904;2022-09-29T12:31:55;98417.03;;;16.38;100.00
10638;BME280;47007;49.252;8.904;2022-09-29T12:34:33;98419.88;;;16.58;100.00
10638;BME280;47007;49.252;8.904;2022-09-29T12:37:09;98418.75;;;16.81;100.00
10638;BME280;47007;49.252;8.904;2022-09-29T12:40:27;98420.34;;;16.50;100.00
10638;BME280;47007;49.252;8.904;2022-09-29T12:50:53;98414.66;;;15.61;100.00
10638;BME280;47007;49.252;8.904;2022-09-29T12:53:33;98408.09;;;15.68;100.00
10638;BME280;47007;49.252;8.904;2022-09-29T12:56:27;98417.41;;;15.66;100.00
10638;BME280;47007;49.252;8.904;2022-09-29T12:59:02;98402.88;;;15.84;100.00
10638;BME280;47007;49.252;8.904;2022-09-29T13:01:35;98408.19;;;15.78;100.00
10638;BME280;47007;49.252;8.904;2022-09-29T13:04:18;98415.84;;;15.97;100.00
10638;BME280;47007;49.252;8.904;2022-09-29T13:12:42;98419.97;;;16.09;100.00
10638;BME280;47007;49.252;8.904;2022-09-29T13:29:20;98386.91;;;16.79;100.00
10638;BME280;47007;49.252;8.904;2022-09-29T13:31:48;98418.13;;;16.69;97.92
10638;BME280;47007;49.252;8.904;2022-09-29T13:34:36;98434.31;;;16.57;100.00
10638;BME280;47007;49.252;8.904;2022-09-29T13:37:16;98433.47;;;16.51;100.00
10638;BME280;47007;49.252;8.904;2022-09-29T13:42:36;98424.97;;;16.60;98.39
10638;BME280;47007;49.252;8.904;2022-09-29T13:47:47;98434.97;;;16.69;94.07
10638;BME280;47007;49.252;8.904;2022-09-29T13:58:28;98451.13;;;16.52;95.30
10638;BME280;47007;49.252;8.904;2022-09-29T14:00:58;98448.63;;;16.41;95.46
10638;BME280;47007;49.252;8.904;2022-09-29T14:03:26;98446.19;;;16.66;96.73
10638;BME280;47007;49.252;8.904;2022-09-29T14:09:04;98451.56;;;16.71;90.72
10638;BME280;47007;49.252;8.904;2022-09-29T14:11:35;98451.06;;;16.42;93.80
10638;BME280;47007;49.252;8.904;2022-09-29T14:14:07;98453.56;;;16.27;96.48
10638;BME280;47007;49.252;8.904;2022-09-29T14:16:44;98456.59;;;16.36;100.00
10638;BME280;47007;49.252;8.904;2022-09-29T14:21:58;98461.75;;;16.74;100.00
10638;BME280;47007;49.252;8.904;2022-09-29T14:27:24;98464.44;;;16.47;97.22
10638;BME280;47007;49.252;8.904;2022-09-29T14:33:23;98363.22;;;15.97;98.27
10638;BME280;47007;49.252;8.904;2022-09-29T14:36:02;98469.28;;;16.50;96.15
10638;BME280;47007;49.252;8.904;2022-09-29T14:38:40;98481.88;;;16.50;98.77
10638;BME280;47007;49.252;8.904;2022-09-29T14:43:47;98469.94;;;16.31;95.87
10638;BME280;47007;49.252;8.904;2022-09-29T14:55:18;98480.31;;;16.54;95.12
10638;BME280;47007;49.252;8.904;2022-09-29T15:03:46;98483.59;;;15.86;100.00
10638;BME280;47007;49.252;8.904;2022-09-29T15:06:19;98488.22;;;15.90;100.00
10638;BME280;47007;49.252;8.904;2022-09-29T15:08:56;98484.47;;;15.91;100.00
10638;BME280;47007;49.252;8.904;2022-09-29T15:11:40;98488.13;;;15.85;100.00
10638;BME280;47007;49.252;8.904;2022-09-29T15:14:35;98482.00;;;15.63;100.00
10638;BME280;47007;49.252;8.904;2022-09-29T15:20:17;98477.38;;;15.58;100.00
10638;BME280;47007;49.252;8.904;2022-09-29T15:25:34;98472.69;;;15.49;100.00
10638;BME280;47007;49.252;8.904;2022-09-29T15:28:09;98485.97;;;15.60;100.00
10638;BME280;47007;49.252;8.904;2022-09-29T15:30:37;98489.59;;;15.54;100.00
10638;BME280;47007;49.252;8.904;2022-09-29T15:33:17;98423.47;;;15.01;100.00
10638;BME280;47007;49.252;8.904;2022-09-29T15:35:50;98473.00;;;15.30;100.00
10638;BME280;47007;49.252;8.904;2022-09-29T15:40:55;98494.03;;;15.27;100.00
10638;BME280;47007;49.252;8.904;2022-09-29T15:43:26;98511.44;;;15.29;100.00
10638;BME280;47007;49.252;8.904;2022-09-29T15:45:55;98502.78;;;15.22;100.00
10638;BME280;47007;49.252;8.904;2022-09-29T15:48:26;98510.88;;;15.10;100.00
10638;BME280;47007;49.252;8.904;2022-09-29T15:50:53;98508.28;;;14.99;100.00
10638;BME280;47007;49.252;8.904;2022-09-29T15:53:22;98518.81;;;15.05;100.00
10638;BME280;47007;49.252;8.904;2022-09-29T15:55:54;98501.09;;;14.99;100.00
10638;BME280;47007;49.252;8.904;2022-09-29T16:01:02;98442.59;;;14.43;100.00
10638;BME280;47007;49.252;8.904;2022-09-29T16:03:36;98506.94;;;14.80;100.00
10638;BME280;47007;49.252;8.904;2022-09-29T16:06:32;98513.31;;;14.79;100.00
10638;BME280;47007;49.252;8.904;2022-09-29T16:09:03;98519.13;;;14.76;100.00
10638;BME280;47007;49.252;8.904;2022-09-29T16:16:35;98522.78;;;14.69;100.00
10638;BME280;47007;49.252;8.904;2022-09-29T16:19:29;98517.81;;;14.61;100.00
10638;BME280;47007;49.252;8.904;2022-09-29T16:21:57;98522.75;;;14.53;100.00
10638;BME280;47007;49.252;8.904;2022-09-29T16:24:30;98479.50;;;14.22;100.00
10638;BME280;47007;49.252;8.904;2022-09-29T16:26:58;98517.84;;;14.33;100.00
10638;BME280;47007;49.252;8.904;2022-09-29T16:29:32;98528.41;;;14.28;100.00
10638;BME280;47007;49.252;8.904;2022-09-29T16:32:34;98528.28;;;14.23;100.00
10638;BME280;47007;49.252;8.904;2022-09-29T16:35:38;98532.63;;;14.12;100.00
10638;BME280;47007;49.252;8.904;2022-09-29T16:40:39;98526.44;;;13.95;100.00
10638;BME280;47007;49.252;8.904;2022-09-29T16:43:18;98530.84;;;13.89;100.00
10638;BME280;47007;49.252;8.904;2022-09-29T16:45:50;98529.13;;;13.83;100.00
10638;BME280;47007;49.252;8.904;2022-09-29T16:48:18;98520.09;;;13.73;100.00
10638;BME280;47007;49.252;8.904;2022-09-29T16:50:53;98512.66;;;13.46;100.00